Mahlon Sweet Field
KEUG : now visible

Airfield :











YOU CAN JOIN US ON...

 
LOGIN :

Register | Disclaimer

   EN    FR    IT 

 









Legend :    VFR   Marginal VFR   IFR   Intensive IFR   Very Intensive IFR
Visi :
Ceiling :
>= 8 km
>= 3000ft
5 to 8 km
1000 to 3000 ft
1500m to 5 km
500 to 1000 ft
800 to 1500m
200 to 500 ft
< 800m
< 200 ft
Symbols :   Thunderstorms  Fog  Heavy snow  Heavy precipitations  Wind > 20 kt






- Airport Elevation : 374 ft
- IATA code : EUG


KEUG - Mahlon Sweet Field

CURRENT METAR :
  • 230454Z 14007KT 10SM SCT042 BKN095 BKN120 12/10 A2985 RMK AO2 SLP108 T01170100

EXPIRED METARs :
  • 230354Z 15007KT 10SM SCT043 BKN070 BKN150 12/10 A2986 RMK AO2 SLP111 T01170100
  • 230254Z 14005KT 10SM FEW035 BKN075 BKN140 12/09 A2987 RMK AO2 SLP115 T01170094 58002

TAF KEUG
Valid from the 23 at 06:00 until the 24 at 06:00 UTC


230520Z 2306/2406 16006KT P6SM SCT045 BKN070
FM230800 14007KT P6SM -RA OVC050
FM231200 13008KT 5SM -RA BR BKN022 OVC035
FM231600 16011KT P6SM -SHRA OVC025
FM231900 17007KT P6SM VCSH SCT030 BKN050
FM240000 14005KT P6SM SCT050 BKN200
KZSE FIR / North America



MET'MAP, your aeronautical weather chart ! - Copyright ORBIFLY December 2007 - Disclaimer

ORBIFLY MET'MAP TEAM :

Programming & Development : Alexandra Zaïnal
Concept & original design : Baudouin d'Aumeries
Assistance for programming : Marc-Olivier Méhu
Technical & hardware support : Manuel Goepfert

Contact : metmap@orbifly.com




SOURCES & CREDITS :

   NOAA       Earth
Advisory